Time;durP1;ratioP1;P1;durP2;ratioP2;P2;SDS_P1;SDS_P2;PMS_P1;PMS_P2;Temp;Humidity;BMP_temperature;BMP_pressure;BME280_temperature;BME280_humidity;BME280_pressure;Samples;Min_cycle;Max_cycle;Signal;HPM_P1;HPM_P2
2022/07/06 00:00:49;;;;;;;5.50;1.20;;;15.40;99.90;;;;;;5078783;28;20055;-78
2022/07/06 00:03:15;;;;;;;4.78;1.65;;;15.40;99.90;;;;;;5078390;28;20427;-77
2022/07/06 00:05:40;;;;;;;4.22;1.17;;;15.30;99.90;;;;;;5061876;28;20512;-77
2022/07/06 00:08:06;;;;;;;3.67;0.82;;;15.30;99.90;;;;;;5061709;28;20050;-78
2022/07/06 00:10:32;;;;;;;3.63;1.13;;;15.30;99.90;;;;;;5062397;28;20071;-77
2022/07/06 00:12:58;;;;;;;5.57;0.90;;;15.30;99.90;;;;;;5077962;28;20395;-77
2022/07/06 00:15:23;;;;;;;4.18;1.00;;;15.30;99.90;;;;;;5062386;28;20051;-77
2022/07/06 00:17:49;;;;;;;3.20;0.80;;;15.30;99.90;;;;;;5095512;28;20039;-77
2022/07/06 00:20:15;;;;;;;4.00;1.48;;;15.30;99.90;;;;;;5061788;28;20067;-78
2022/07/06 00:22:40;;;;;;;2.13;1.13;;;15.40;99.90;;;;;;5078798;28;20032;-78
2022/07/06 00:25:06;;;;;;;1.63;0.80;;;15.30;99.90;;;;;;5078709;28;20036;-77
2022/07/06 00:27:32;;;;;;;2.92;0.85;;;15.40;99.90;;;;;;5061876;28;20044;-78
2022/07/06 00:29:58;;;;;;;3.60;0.95;;;15.40;99.90;;;;;;5061647;28;20042;-78
2022/07/06 00:32:25;;;;;;;4.32;1.00;;;15.40;99.90;;;;;;5044967;28;20047;-77
2022/07/06 00:34:50;;;;;;;2.55;1.02;;;15.40;99.90;;;;;;5045351;28;20044;-77
2022/07/06 00:37:16;;;;;;;3.72;0.90;;;15.40;99.90;;;;;;5061538;28;20165;-77
2022/07/06 00:39:42;;;;;;;3.80;0.90;;;15.40;99.90;;;;;;5061802;28;20047;-77
2022/07/06 00:42:08;;;;;;;4.78;1.55;;;15.30;99.90;;;;;;5096610;28;20387;-78
2022/07/06 00:44:33;;;;;;;4.72;0.90;;;15.30;99.90;;;;;;5082884;28;20035;-78
2022/07/06 00:46:59;;;;;;;4.53;1.00;;;15.30;99.90;;;;;;5081787;28;20039;-78
2022/07/06 00:52:11;;;;;;;2.55;0.88;;;15.30;99.90;;;;;;5084459;28;20042;-77
2022/07/06 00:54:39;;;;;;;2.30;0.77;;;15.40;99.90;;;;;;5081711;28;20031;-77
2022/07/06 00:57:05;;;;;;;1.63;0.70;;;15.40;99.90;;;;;;5081588;28;20040;-77
2022/07/06 00:59:31;;;;;;;1.92;1.00;;;15.40;99.90;;;;;;5081480;28;20506;-77
2022/07/06 01:01:58;;;;;;;2.13;0.85;;;15.40;99.90;;;;;;5064884;28;20035;-77
2022/07/06 01:04:23;;;;;;;3.65;1.20;;;15.40;99.90;;;;;;5081628;28;20122;-77
2022/07/06 01:06:49;;;;;;;4.28;0.90;;;15.40;99.90;;;;;;5081737;28;20082;-78
2022/07/06 01:09:16;;;;;;;2.33;0.85;;;15.30;99.90;;;;;;5048059;28;20074;-78
2022/07/06 01:11:42;;;;;;;2.22;0.82;;;15.30;99.90;;;;;;5081554;28;20396;-77
2022/07/06 01:14:08;;;;;;;2.70;1.00;;;15.30;99.90;;;;;;5081152;28;20067;-77
2022/07/06 01:16:34;;;;;;;5.28;1.80;;;15.20;99.90;;;;;;5098275;28;20055;-77
2022/07/06 01:19:00;;;;;;;9.30;1.23;;;15.30;99.90;;;;;;5081558;28;20035;-77
2022/07/06 01:21:26;;;;;;;2.85;1.10;;;15.30;99.90;;;;;;5064692;28;20118;-78
2022/07/06 01:23:51;;;;;;;4.75;1.00;;;15.20;99.90;;;;;;5064061;28;20092;-77
2022/07/06 01:26:19;;;;;;;2.72;0.80;;;15.20;99.90;;;;;;5065011;28;20044;-78
2022/07/06 01:28:46;;;;;;;2.05;1.00;;;15.10;99.90;;;;;;5098179;28;20092;-77
2022/07/06 01:31:17;;;;;;;5.45;1.05;;;15.10;99.90;;;;;;5098476;28;20377;-77
2022/07/06 01:33:43;;;;;;;3.65;1.02;;;15.10;99.90;;;;;;5098154;28;20391;-77
2022/07/06 01:36:09;;;;;;;2.80;0.98;;;15.00;99.90;;;;;;5064395;28;20480;-77
2022/07/06 01:38:48;;;;;;;2.55;1.25;;;15.00;99.90;;;;;;5064340;28;20040;-77
2022/07/06 01:41:14;;;;;;;3.35;1.33;;;15.00;99.90;;;;;;5097884;28;20050;-77
2022/07/06 01:43:40;;;;;;;4.88;1.38;;;14.90;99.90;;;;;;5064345;28;20035;-77
2022/07/06 01:46:05;;;;;;;1.65;0.80;;;14.90;99.90;;;;;;5064287;28;20062;-77
2022/07/06 01:48:31;;;;;;;3.92;0.98;;;14.90;99.90;;;;;;5064421;28;20043;-77
2022/07/06 01:50:57;;;;;;;4.88;1.30;;;14.90;99.90;;;;;;5080803;28;20614;-77
2022/07/06 01:53:23;;;;;;;1.65;0.75;;;14.90;99.90;;;;;;5079732;28;20047;-77
2022/07/06 01:55:49;;;;;;;2.63;1.10;;;14.90;99.90;;;;;;5047551;28;20043;-77
2022/07/06 01:58:14;;;;;;;3.83;1.23;;;14.90;99.90;;;;;;5064194;28;20044;-77
2022/07/06 02:00:40;;;;;;;2.17;1.00;;;14.90;99.90;;;;;;5097328;28;20188;-77
2022/07/06 02:03:06;;;;;;;4.38;0.80;;;14.90;99.90;;;;;;5064077;28;20035;-77
2022/07/06 02:05:32;;;;;;;4.07;0.95;;;14.90;99.90;;;;;;5047173;28;20476;-77
2022/07/06 02:07:57;;;;;;;2.40;1.00;;;14.90;99.90;;;;;;5080618;28;20128;-77
2022/07/06 02:10:23;;;;;;;4.05;0.90;;;14.90;99.90;;;;;;5063520;28;20174;-78
2022/07/06 02:12:49;;;;;;;7.95;1.30;;;15.00;99.90;;;;;;5063582;28;20044;-78
2022/07/06 02:15:14;;;;;;;4.97;0.73;;;15.00;99.90;;;;;;5063838;28;20047;-78
2022/07/06 02:17:40;;;;;;;3.78;1.17;;;15.00;99.90;;;;;;5079889;28;20036;-78
2022/07/06 02:20:06;;;;;;;5.10;1.00;;;15.00;99.90;;;;;;5064136;28;20123;-78
2022/07/06 02:22:32;;;;;;;3.42;0.90;;;15.00;99.90;;;;;;5047551;28;20061;-77
2022/07/06 02:24:58;;;;;;;3.97;0.80;;;15.00;99.90;;;;;;5080490;28;20040;-78
2022/07/06 02:27:24;;;;;;;3.00;1.00;;;15.00;99.90;;;;;;5063169;28;20046;-77
2022/07/06 02:29:50;;;;;;;2.00;1.08;;;15.00;99.90;;;;;;5080761;28;20548;-77
2022/07/06 02:32:16;;;;;;;2.30;0.90;;;15.00;99.90;;;;;;5080503;28;20120;-78
2022/07/06 02:34:43;;;;;;;2.45;0.90;;;15.00;99.90;;;;;;5080400;28;20116;-77
2022/07/06 02:37:08;;;;;;;4.93;1.30;;;15.10;99.90;;;;;;5093433;28;20063;-77
2022/07/06 02:39:34;;;;;;;3.83;1.00;;;15.10;99.90;;;;;;5060384;28;20040;-77
2022/07/06 02:42:00;;;;;;;2.38;0.85;;;15.10;99.90;;;;;;5093422;28;20403;-78
2022/07/06 02:44:26;;;;;;;4.82;1.77;;;15.10;99.90;;;;;;5059990;28;20032;-78
2022/07/06 02:46:51;;;;;;;3.75;1.13;;;15.10;99.90;;;;;;5059861;28;20044;-78
2022/07/06 02:49:17;;;;;;;6.22;1.25;;;15.10;99.90;;;;;;5076490;28;20040;-78
2022/07/06 02:51:43;;;;;;;5.10;1.02;;;15.10;99.90;;;;;;5076475;28;20040;-78
2022/07/06 02:54:08;;;;;;;7.20;1.88;;;15.10;99.90;;;;;;5059986;28;20090;-77
2022/07/06 02:56:34;;;;;;;4.13;1.10;;;15.10;99.90;;;;;;5043182;28;20085;-78
2022/07/06 02:59:00;;;;;;;2.08;1.00;;;15.10;99.90;;;;;;5059420;28;20072;-78
2022/07/06 03:01:25;;;;;;;4.45;1.00;;;15.10;99.90;;;;;;5076329;28;20123;-77
2022/07/06 03:03:51;;;;;;;3.88;0.90;;;15.10;99.90;;;;;;5059570;28;20038;-77
2022/07/06 03:06:17;;;;;;;3.45;0.95;;;15.00;99.90;;;;;;5092959;28;20036;-77
2022/07/06 03:08:43;;;;;;;5.15;0.90;;;15.10;99.90;;;;;;5076775;28;20040;-77
2022/07/06 03:11:09;;;;;;;3.58;1.23;;;15.10;99.90;;;;;;5060239;28;20047;-77
2022/07/06 03:13:35;;;;;;;2.92;1.00;;;15.10;99.90;;;;;;5059957;28;20046;-78
2022/07/06 03:16:01;;;;;;;2.55;0.75;;;15.10;99.90;;;;;;5076469;28;20036;-78
2022/07/06 03:18:27;;;;;;;5.07;1.42;;;15.10;99.90;;;;;;5092275;28;20088;-78
2022/07/06 03:20:53;;;;;;;4.22;0.90;;;15.10;99.90;;;;;;5093322;28;20127;-77
2022/07/06 03:23:19;;;;;;;3.60;0.88;;;15.10;99.90;;;;;;5077724;28;20067;-77
2022/07/06 03:25:45;;;;;;;2.50;0.70;;;15.10;99.90;;;;;;5060836;28;20400;-78
2022/07/06 03:28:11;;;;;;;3.00;1.00;;;15.20;99.90;;;;;;5092943;28;20044;-78
2022/07/06 03:30:37;;;;;;;3.72;1.20;;;15.10;99.90;;;;;;5093752;28;20135;-77
2022/07/06 03:33:03;;;;;;;5.32;1.33;;;15.10;99.90;;;;;;5059294;28;20054;-78
2022/07/06 03:35:28;;;;;;;4.47;1.25;;;15.10;99.90;;;;;;5092668;28;20035;-78
2022/07/06 03:37:54;;;;;;;3.35;1.17;;;15.10;99.90;;;;;;5075909;28;20052;-77
2022/07/06 03:40:20;;;;;;;5.38;1.15;;;15.10;99.90;;;;;;5075952;28;20038;-77
2022/07/06 03:42:46;;;;;;;2.33;0.90;;;15.10;99.90;;;;;;5075882;28;20396;-77
2022/07/06 03:45:12;;;;;;;3.10;0.90;;;15.10;99.90;;;;;;5076197;28;20093;-77
2022/07/06 03:47:37;;;;;;;3.13;0.98;;;15.10;99.90;;;;;;5058832;28;20097;-78
2022/07/06 03:50:03;;;;;;;2.88;1.00;;;15.10;99.90;;;;;;5059403;28;20130;-78
2022/07/06 03:52:29;;;;;;;3.50;0.93;;;15.10;99.90;;;;;;5076392;28;20097;-78
2022/07/06 03:54:56;;;;;;;1.67;0.63;;;15.10;99.90;;;;;;5093290;28;20044;-78
2022/07/06 03:57:21;;;;;;;4.40;1.25;;;15.10;99.90;;;;;;5075701;28;20073;-78
2022/07/06 03:59:47;;;;;;;4.95;0.93;;;15.00;99.90;;;;;;5093280;28;20049;-78
2022/07/06 04:02:13;;;;;;;2.67;0.82;;;15.00;99.90;;;;;;5075768;28;20040;-78
2022/07/06 04:04:39;;;;;;;7.63;1.20;;;15.00;99.90;;;;;;5093348;28;20035;-78
2022/07/06 04:07:05;;;;;;;1.50;0.70;;;15.00;99.90;;;;;;5076436;28;20040;-78
2022/07/06 04:09:30;;;;;;;1.83;0.70;;;15.00;99.90;;;;;;5075819;28;20062;-78
2022/07/06 04:11:56;;;;;;;4.80;1.20;;;14.90;99.90;;;;;;5059766;28;20529;-78
2022/07/06 04:14:22;;;;;;;2.42;0.80;;;14.90;99.90;;;;;;5058938;28;20400;-78
2022/07/06 04:16:48;;;;;;;5.43;0.98;;;14.90;99.90;;;;;;5077402;28;20043;-78
2022/07/06 04:19:14;;;;;;;3.85;1.17;;;14.90;99.90;;;;;;5079587;28;20476;-78
2022/07/06 04:21:39;;;;;;;3.42;1.13;;;14.80;99.90;;;;;;5063509;28;20084;-78
2022/07/06 04:24:05;;;;;;;3.70;1.10;;;14.80;99.90;;;;;;5047201;28;20040;-78
2022/07/06 04:26:31;;;;;;;3.58;0.90;;;14.70;99.90;;;;;;5063430;28;20036;-78
2022/07/06 04:28:57;;;;;;;2.97;1.00;;;14.70;99.90;;;;;;5063156;28;20044;-78
2022/07/06 04:31:23;;;;;;;3.70;1.13;;;14.70;99.90;;;;;;5046795;28;20040;-78
2022/07/06 04:33:48;;;;;;;5.18;1.20;;;14.70;99.90;;;;;;5080189;28;20407;-78
2022/07/06 04:36:14;;;;;;;2.47;0.95;;;14.70;99.90;;;;;;5080047;28;20099;-78
2022/07/06 04:38:40;;;;;;;3.92;1.27;;;14.70;99.90;;;;;;5079063;28;20048;-78
2022/07/06 04:41:06;;;;;;;3.30;1.02;;;14.70;99.90;;;;;;5063530;28;20483;-78
2022/07/06 04:43:31;;;;;;;2.38;1.00;;;14.80;99.90;;;;;;5096581;28;20031;-78
2022/07/06 04:45:57;;;;;;;5.63;1.20;;;14.90;99.90;;;;;;5046396;28;20048;-78
2022/07/06 04:48:23;;;;;;;2.78;1.20;;;15.00;99.90;;;;;;5078535;28;20044;-78
2022/07/06 04:50:48;;;;;;;2.92;1.00;;;15.00;99.90;;;;;;5045587;28;20040;-78
2022/07/06 04:53:14;;;;;;;4.03;1.17;;;15.00;99.90;;;;;;5096439;28;20044;-78
2022/07/06 04:55:40;;;;;;;5.28;1.10;;;15.10;99.90;;;;;;5063847;28;20135;-78
2022/07/06 04:58:05;;;;;;;3.13;1.10;;;15.10;99.90;;;;;;5079572;28;20040;-78
2022/07/06 05:00:31;;;;;;;5.07;1.20;;;15.10;99.90;;;;;;5062290;28;20036;-78
2022/07/06 05:02:57;;;;;;;3.33;1.00;;;15.20;99.90;;;;;;5096554;28;20039;-77
2022/07/06 05:05:23;;;;;;;4.10;1.08;;;15.20;99.90;;;;;;5078842;28;20032;-78
2022/07/06 05:07:48;;;;;;;2.42;1.00;;;15.20;99.90;;;;;;5078744;28;20062;-78
2022/07/06 05:10:14;;;;;;;4.15;0.90;;;15.20;99.90;;;;;;5063086;28;20032;-78
2022/07/06 05:12:40;;;;;;;3.10;0.90;;;15.30;99.90;;;;;;5078448;28;20154;-78
2022/07/06 05:15:07;;;;;;;3.67;1.20;;;15.30;99.90;;;;;;5077336;28;20093;-78
2022/07/06 05:17:33;;;;;;;2.85;0.95;;;15.30;99.90;;;;;;5078893;28;20047;-78
2022/07/06 05:19:58;;;;;;;4.85;1.10;;;15.30;99.90;;;;;;5062807;28;20040;-78
2022/07/06 05:22:24;;;;;;;3.25;1.02;;;15.30;99.90;;;;;;5079279;28;20043;-78
2022/07/06 05:24:50;;;;;;;4.68;1.05;;;15.30;99.90;;;;;;5095746;28;20040;-78
2022/07/06 05:27:16;;;;;;;3.42;1.00;;;15.30;99.90;;;;;;5079208;28;20040;-78
2022/07/06 05:29:42;;;;;;;4.03;1.20;;;15.40;99.90;;;;;;5062206;28;20032;-78
2022/07/06 05:32:08;;;;;;;4.13;0.93;;;15.40;99.90;;;;;;5062001;28;20076;-78
2022/07/06 05:34:35;;;;;;;3.42;0.93;;;15.40;99.90;;;;;;5061710;28;20032;-78
2022/07/06 05:37:01;;;;;;;3.20;0.90;;;15.50;99.90;;;;;;5095551;28;20124;-78
2022/07/06 05:39:26;;;;;;;5.40;1.00;;;15.60;99.90;;;;;;5062129;28;20480;-78
2022/07/06 05:41:52;;;;;;;3.70;1.00;;;15.60;99.90;;;;;;5078756;28;20086;-78
2022/07/06 05:44:18;;;;;;;2.92;1.13;;;15.70;99.90;;;;;;5078207;28;20101;-78
2022/07/06 05:46:43;;;;;;;2.42;0.80;;;15.60;99.90;;;;;;5079372;28;20031;-78
2022/07/06 05:51:53;;;;;;;1.88;0.70;;;15.80;99.90;;;;;;5081103;28;20442;-78
2022/07/06 05:54:19;;;;;;;2.60;0.82;;;15.80;99.90;;;;;;5062319;28;20039;-78
2022/07/06 05:56:45;;;;;;;4.65;0.88;;;15.90;99.90;;;;;;5078369;28;20093;-78
2022/07/06 05:59:10;;;;;;;5.60;1.33;;;15.90;99.90;;;;;;5061631;28;20075;-78
2022/07/06 06:01:36;;;;;;;2.60;0.77;;;15.90;99.90;;;;;;5045417;28;20551;-78
2022/07/06 06:04:02;;;;;;;2.60;0.70;;;16.00;99.90;;;;;;5061673;28;20450;-78
2022/07/06 06:06:27;;;;;;;3.42;1.02;;;16.10;99.90;;;;;;5078085;28;20047;-78
2022/07/06 06:08:54;;;;;;;4.70;1.00;;;16.10;99.90;;;;;;5077855;28;20134;-78
2022/07/06 06:11:20;;;;;;;2.92;0.82;;;16.20;99.90;;;;;;5078225;28;20147;-78
2022/07/06 06:13:46;;;;;;;8.20;0.98;;;16.30;99.90;;;;;;5078191;28;20532;-78
2022/07/06 06:16:11;;;;;;;6.72;1.10;;;16.30;99.90;;;;;;5061287;28;20105;-78
2022/07/06 06:18:37;;;;;;;3.35;0.88;;;16.30;99.90;;;;;;5061330;28;20044;-78
2022/07/06 06:21:03;;;;;;;7.25;1.02;;;16.40;99.90;;;;;;5061226;28;20036;-78
2022/07/06 06:23:28;;;;;;;2.40;0.70;;;16.40;99.90;;;;;;5095010;28;20085;-78
2022/07/06 06:25:54;;;;;;;3.90;1.17;;;16.40;99.90;;;;;;5094950;28;20097;-78
2022/07/06 06:28:20;;;;;;;4.43;0.63;;;16.30;99.90;;;;;;5094196;28;20488;-78
2022/07/06 06:30:45;;;;;;;3.33;0.70;;;16.40;99.90;;;;;;5060407;28;20071;-78
2022/07/06 06:33:19;;;;;;;3.97;0.73;;;16.40;99.90;;;;;;5060776;28;20059;-78
2022/07/06 06:35:47;;;;;;;3.15;1.08;;;16.40;99.90;;;;;;5094978;28;20553;-78
2022/07/06 06:38:14;;;;;;;4.28;1.15;;;16.40;99.90;;;;;;5076561;28;20136;-78
2022/07/06 06:40:40;;;;;;;5.40;1.08;;;16.40;99.90;;;;;;5076655;28;20040;-78
2022/07/06 06:43:06;;;;;;;1.65;0.95;;;16.50;99.90;;;;;;5094359;28;20066;-78
2022/07/06 06:45:32;;;;;;;4.40;1.00;;;16.50;99.90;;;;;;5094320;28;20039;-78
2022/07/06 06:47:58;;;;;;;2.33;0.80;;;16.50;99.90;;;;;;5060444;28;20048;-78
2022/07/06 06:50:24;;;;;;;5.03;0.93;;;16.50;99.90;;;;;;5093654;28;20086;-78
2022/07/06 06:52:50;;;;;;;3.13;0.70;;;16.50;99.90;;;;;;5075571;28;20044;-78
2022/07/06 06:55:16;;;;;;;4.70;1.25;;;16.50;99.90;;;;;;5077055;28;20036;-77
2022/07/06 06:57:42;;;;;;;2.90;0.80;;;16.60;99.90;;;;;;5094107;28;20040;-78
2022/07/06 07:00:08;;;;;;;5.25;0.88;;;16.50;99.90;;;;;;5077655;28;20127;-78
2022/07/06 07:02:34;;;;;;;2.78;0.70;;;16.50;99.90;;;;;;5094007;28;20032;-78
2022/07/06 07:05:00;;;;;;;4.10;0.80;;;16.50;99.90;;;;;;5060548;28;20032;-78
2022/07/06 07:07:26;;;;;;;3.72;0.95;;;16.50;99.90;;;;;;5076146;28;20546;-78
2022/07/06 07:09:52;;;;;;;2.63;0.50;;;16.50;99.90;;;;;;5093131;28;20065;-78
2022/07/06 07:12:19;;;;;;;1.92;0.60;;;16.50;99.90;;;;;;5060901;28;20042;-78
2022/07/06 07:14:45;;;;;;;3.20;0.70;;;16.50;99.90;;;;;;5060261;28;20071;-78
2022/07/06 07:17:11;;;;;;;3.45;0.93;;;16.60;99.90;;;;;;5077428;28;20071;-78
2022/07/06 07:19:37;;;;;;;2.80;0.75;;;16.80;99.90;;;;;;5076669;28;20040;-78
2022/07/06 07:22:04;;;;;;;3.03;0.80;;;17.10;99.90;;;;;;5076408;28;20067;-78
2022/07/06 07:24:29;;;;;;;3.45;0.80;;;17.40;99.90;;;;;;5076388;28;20074;-78
2022/07/06 07:26:55;;;;;;;3.10;0.70;;;17.80;99.90;;;;;;5059740;28;20035;-78
2022/07/06 07:29:21;;;;;;;3.25;0.60;;;18.10;99.90;;;;;;5060231;28;20032;-78
2022/07/06 07:31:46;;;;;;;2.97;0.70;;;18.40;99.90;;;;;;5059680;28;20400;-78
2022/07/06 07:34:12;;;;;;;6.40;0.70;;;18.30;99.90;;;;;;5059663;28;20051;-78
2022/07/06 07:36:38;;;;;;;3.53;0.65;;;18.20;99.90;;;;;;5061594;28;20048;-79
2022/07/06 07:39:04;;;;;;;2.63;0.68;;;18.30;99.90;;;;;;5080191;28;20445;-78
2022/07/06 07:41:30;;;;;;;1.08;0.50;;;18.40;99.90;;;;;;5063468;28;20093;-78
2022/07/06 07:43:56;;;;;;;1.50;0.50;;;18.40;99.90;;;;;;5096320;28;20479;-78
2022/07/06 07:46:22;;;;;;;3.92;0.80;;;18.50;99.90;;;;;;5079902;28;20126;-78
2022/07/06 07:48:48;;;;;;;3.45;0.95;;;18.50;99.90;;;;;;5096608;28;20050;-78
2022/07/06 07:51:14;;;;;;;1.83;0.65;;;18.80;99.90;;;;;;5061753;28;20058;-78
2022/07/06 07:53:39;;;;;;;2.35;0.60;;;19.00;99.70;;;;;;5079314;28;20061;-78
2022/07/06 07:56:05;;;;;;;3.55;0.70;;;19.20;98.90;;;;;;5063412;28;20039;-78
2022/07/06 07:58:31;;;;;;;2.30;0.68;;;19.30;98.70;;;;;;5062553;28;20487;-78
2022/07/06 08:00:57;;;;;;;3.45;0.75;;;19.20;98.40;;;;;;5079405;28;20077;-78
2022/07/06 08:03:22;;;;;;;2.90;0.63;;;19.10;98.70;;;;;;5062198;28;20035;-78
2022/07/06 08:05:48;;;;;;;1.83;0.52;;;18.90;98.70;;;;;;5095230;28;20035;-78
2022/07/06 08:08:15;;;;;;;2.88;0.75;;;18.80;98.90;;;;;;5062294;28;20105;-78
2022/07/06 08:10:41;;;;;;;3.75;0.80;;;18.80;99.10;;;;;;5078590;28;20047;-78
2022/07/06 08:13:10;;;;;;;3.35;0.80;;;18.90;99.40;;;;;;5061543;28;20133;-79
2022/07/06 08:15:36;;;;;;;3.47;0.77;;;19.00;99.00;;;;;;5062526;28;20441;-78
2022/07/06 08:18:03;;;;;;;9.07;1.08;;;19.10;99.10;;;;;;5062239;28;20118;-78
2022/07/06 08:20:29;;;;;;;3.72;0.60;;;19.20;99.00;;;;;;5079647;28;20066;-78
2022/07/06 08:22:55;;;;;;;8.38;0.80;;;19.20;98.70;;;;;;5078856;28;20108;-79
2022/07/06 08:25:21;;;;;;;0.73;0.32;;;19.10;98.60;;;;;;5063254;28;20495;-78
2022/07/06 08:27:46;;;;;;;2.28;0.60;;;19.10;98.60;;;;;;5062057;28;20035;-78
2022/07/06 08:30:13;;;;;;;6.30;0.95;;;19.30;98.80;;;;;;5079035;28;20467;-78
2022/07/06 08:32:42;;;;;;;9.77;0.82;;;19.70;98.70;;;;;;5078662;28;20183;-78
2022/07/06 08:35:08;;;;;;;2.17;0.40;;;20.10;97.70;;;;;;5095757;28;20399;-78
2022/07/06 08:37:34;;;;;;;3.08;0.60;;;20.10;96.70;;;;;;5079026;28;20496;-78
2022/07/06 08:40:00;;;;;;;1.50;0.52;;;20.00;95.50;;;;;;5045638;28;20088;-78
2022/07/06 08:42:30;;;;;;;1.20;0.50;;;19.90;95.90;;;;;;5078651;28;20040;-78
2022/07/06 08:45:00;;;;;;;4.50;0.70;;;19.80;95.00;;;;;;5095431;28;20044;-78
2022/07/06 08:47:27;;;;;;;2.40;0.57;;;19.70;95.70;;;;;;5078146;28;20059;-78
2022/07/06 08:49:53;;;;;;;5.63;0.65;;;19.70;95.80;;;;;;5095558;28;20352;-78
2022/07/06 08:52:19;;;;;;;2.63;0.82;;;19.90;95.30;;;;;;5096005;28;20035;-78
2022/07/06 08:54:45;;;;;;;2.45;0.52;;;20.10;95.00;;;;;;5045496;28;20509;-78
2022/07/06 08:57:12;;;;;;;3.08;0.70;;;20.20;93.60;;;;;;5062709;28;20061;-79
2022/07/06 08:59:39;;;;;;;1.52;0.47;;;20.40;93.70;;;;;;5078299;28;20061;-78
2022/07/06 09:02:05;;;;;;;2.88;0.38;;;20.50;92.80;;;;;;5062104;28;20040;-78
2022/07/06 09:04:33;;;;;;;1.23;0.50;;;20.50;92.70;;;;;;5081485;28;20036;-79
2022/07/06 09:06:59;;;;;;;3.78;0.50;;;20.50;93.20;;;;;;5082668;28;20549;-78
2022/07/06 09:09:25;;;;;;;3.10;0.70;;;20.70;92.70;;;;;;5066117;28;20040;-78
2022/07/06 09:11:51;;;;;;;1.83;0.50;;;20.90;92.10;;;;;;5083004;28;20039;-78
2022/07/06 09:14:18;;;;;;;2.65;0.60;;;20.90;91.80;;;;;;5099631;28;20062;-78
2022/07/06 09:16:46;;;;;;;2.25;0.55;;;20.80;90.90;;;;;;5099095;28;20039;-78
2022/07/06 09:19:13;;;;;;;3.28;0.80;;;20.90;90.90;;;;;;5065900;28;20040;-78
2022/07/06 09:21:41;;;;;;;2.67;0.80;;;21.10;91.00;;;;;;5082949;28;20044;-78
2022/07/06 09:24:10;;;;;;;3.50;0.60;;;21.20;91.00;;;;;;5085251;28;20054;-78
2022/07/06 09:26:36;;;;;;;2.05;0.43;;;21.20;90.70;;;;;;5082619;28;20042;-78
2022/07/06 09:29:03;;;;;;;2.40;0.77;;;21.10;91.20;;;;;;5083590;28;20043;-78
2022/07/06 09:31:29;;;;;;;3.63;0.80;;;21.10;90.50;;;;;;5081465;28;20043;-78
2022/07/06 09:33:55;;;;;;;1.27;0.40;;;21.30;90.80;;;;;;5081730;28;20035;-78
2022/07/06 09:36:44;;;;;;;4.75;0.55;;;21.60;90.30;;;;;;5081576;28;20066;-79
2022/07/06 09:39:27;;;;;;;8.90;0.80;;;21.80;86.30;;;;;;5080605;28;20051;-78
2022/07/06 09:41:53;;;;;;;8.43;0.73;;;21.80;87.50;;;;;;5065111;28;20050;-78
2022/07/06 09:44:31;;;;;;;20.20;1.27;;;21.60;88.60;;;;;;5081523;28;20036;-78
2022/07/06 09:47:01;;;;;;;3.38;0.65;;;21.40;87.50;;;;;;5098428;28;20445;-78
2022/07/06 09:49:28;;;;;;;3.53;0.80;;;21.20;87.20;;;;;;5098353;28;20483;-78
2022/07/06 09:52:01;;;;;;;2.92;0.63;;;20.80;86.80;;;;;;5081856;28;20039;-77
2022/07/06 09:54:27;;;;;;;3.55;0.60;;;20.50;86.60;;;;;;5081902;28;20039;-77
2022/07/06 09:56:53;;;;;;;5.45;0.70;;;20.30;87.20;;;;;;5065035;28;20051;-78
2022/07/06 09:59:21;;;;;;;3.28;0.80;;;20.30;87.70;;;;;;5064571;28;20100;-78
2022/07/06 10:01:50;;;;;;;2.08;0.70;;;20.30;88.10;;;;;;5082083;28;20436;-78
2022/07/06 10:04:18;;;;;;;2.08;0.70;;;20.30;87.50;;;;;;5065343;28;20093;-77
2022/07/06 10:06:44;;;;;;;3.45;0.60;;;20.50;88.30;;;;;;5098415;28;20035;-78
2022/07/06 10:09:11;;;;;;;3.55;0.73;;;20.70;88.60;;;;;;5064827;28;20055;-78
2022/07/06 10:11:49;;;;;;;2.58;0.70;;;20.70;89.20;;;;;;5081879;28;20040;-78
2022/07/06 10:14:18;;;;;;;5.90;0.93;;;20.80;89.60;;;;;;5097163;28;20042;-78
2022/07/06 10:16:46;;;;;;;4.07;0.70;;;20.80;90.00;;;;;;5081027;28;20096;-78
2022/07/06 10:19:13;;;;;;;6.25;1.00;;;21.00;90.60;;;;;;5081287;28;20039;-78
2022/07/06 10:21:41;;;;;;;2.92;0.75;;;21.10;90.10;;;;;;5080560;28;20045;-78
2022/07/06 10:24:08;;;;;;;4.15;0.75;;;21.20;90.00;;;;;;5097114;28;20609;-78
2022/07/06 10:26:35;;;;;;;5.10;0.68;;;21.30;89.40;;;;;;5097048;28;20039;-77
2022/07/06 10:29:03;;;;;;;3.50;0.88;;;21.40;88.40;;;;;;5097040;28;20426;-78
2022/07/06 10:31:30;;;;;;;2.88;0.90;;;21.30;88.60;;;;;;5080361;28;20447;-77
2022/07/06 10:34:01;;;;;;;1.58;0.70;;;21.20;88.20;;;;;;5063839;28;20427;-78
2022/07/06 10:36:27;;;;;;;3.17;0.70;;;21.10;88.60;;;;;;5080061;28;20152;-78
2022/07/06 10:38:54;;;;;;;3.35;0.77;;;21.00;89.70;;;;;;5063883;28;20043;-78
2022/07/06 10:41:31;;;;;;;3.38;1.00;;;20.90;90.00;;;;;;5063593;28;20042;-77
2022/07/06 10:43:58;;;;;;;2.65;0.60;;;20.90;88.70;;;;;;5063715;28;20032;-78
2022/07/06 10:46:28;;;;;;;3.45;0.82;;;20.80;89.60;;;;;;5097008;28;20050;-78
2022/07/06 10:48:56;;;;;;;2.95;0.73;;;20.80;88.40;;;;;;5063197;28;20109;-78
2022/07/06 10:51:28;;;;;;;3.08;0.73;;;20.90;88.20;;;;;;5063510;28;20119;-78
2022/07/06 10:53:59;;;;;;;1.92;0.60;;;20.90;88.80;;;;;;5096705;28;20047;-78
2022/07/06 10:56:38;;;;;;;1.42;0.50;;;21.00;88.10;;;;;;5079244;28;20047;-78
2022/07/06 10:59:15;;;;;;;3.60;0.88;;;20.90;87.30;;;;;;5079143;28;20039;-78
2022/07/06 11:02:01;;;;;;;2.10;0.60;;;20.90;87.70;;;;;;5079396;28;20040;-77
2022/07/06 11:04:32;;;;;;;1.02;0.50;;;20.80;88.20;;;;;;5083399;28;20750;-78
2022/07/06 11:07:08;;;;;;;2.80;0.88;;;20.80;87.50;;;;;;5080631;28;20054;-78
2022/07/06 11:09:35;;;;;;;;;;;20.80;86.80;;;;;;5080806;28;20055;-77
2022/07/06 11:12:16;;;;;;;6.75;1.10;;;20.80;86.80;;;;;;5079989;28;19970;-77
2022/07/06 11:14:42;;;;;;;3.20;0.75;;;20.70;88.00;;;;;;5080313;28;20397;-77
2022/07/06 11:17:10;;;;;;;3.88;0.80;;;20.60;88.40;;;;;;5079776;28;20047;-78
2022/07/06 11:19:37;;;;;;;1.60;0.60;;;20.60;89.00;;;;;;5097261;28;20040;-77
2022/07/06 11:22:08;;;;;;;2.50;0.63;;;20.80;89.30;;;;;;5080052;28;20039;-78
2022/07/06 11:24:37;;;;;;;3.05;0.70;;;20.80;88.50;;;;;;5080041;28;20035;-78
2022/07/06 11:27:03;;;;;;;4.43;0.70;;;21.00;87.90;;;;;;5079518;28;20118;-78
2022/07/06 11:29:29;;;;;;;2.72;0.80;;;21.10;87.80;;;;;;5079523;28;20039;-78
2022/07/06 11:32:00;;;;;;;3.50;0.60;;;21.30;87.40;;;;;;5078771;28;20051;-78
2022/07/06 11:34:29;;;;;;;2.08;0.70;;;21.30;86.90;;;;;;5079971;28;20039;-78
2022/07/06 11:37:07;;;;;;;2.88;0.75;;;21.30;84.90;;;;;;5079187;28;20066;-78
2022/07/06 11:39:35;;;;;;;1.45;0.60;;;21.20;84.30;;;;;;5094961;28;20050;-78
2022/07/06 11:42:03;;;;;;;2.08;0.80;;;21.00;84.80;;;;;;5078560;28;20073;-78
2022/07/06 11:44:30;;;;;;;1.50;0.60;;;20.90;84.60;;;;;;5079231;28;20035;-77
2022/07/06 11:46:57;;;;;;;2.53;0.52;;;21.00;83.30;;;;;;5046315;28;20039;-77
2022/07/06 11:49:23;;;;;;;1.55;0.50;;;21.20;85.20;;;;;;5080216;28;20032;-78
2022/07/06 11:51:49;;;;;;;2.55;0.60;;;21.30;84.40;;;;;;5079521;28;20052;-78
2022/07/06 11:54:21;;;;;;;1.48;0.85;;;21.50;84.10;;;;;;5062664;28;20092;-78
2022/07/06 11:56:47;;;;;;;1.38;0.50;;;21.70;83.40;;;;;;5079010;28;20109;-78
2022/07/06 11:59:15;;;;;;;1.60;0.60;;;21.70;82.60;;;;;;5078961;28;20101;-78
2022/07/06 12:01:43;;;;;;;3.28;0.88;;;21.70;82.30;;;;;;5078926;28;20100;-77
2022/07/06 12:04:10;;;;;;;5.78;0.80;;;21.80;82.20;;;;;;5063918;28;20039;-78
2022/07/06 12:06:36;;;;;;;4.40;1.17;;;21.90;81.20;;;;;;5046255;28;20108;-77
2022/07/06 12:09:06;;;;;;;6.00;0.98;;;21.90;80.80;;;;;;5096035;28;20445;-78
2022/07/06 12:11:34;;;;;;;2.58;0.70;;;21.90;81.20;;;;;;5078997;28;20039;-78
2022/07/06 12:14:16;;;;;;;2.30;0.77;;;21.90;80.70;;;;;;5078444;28;20127;-78
2022/07/06 12:16:42;;;;;;;2.63;0.80;;;21.80;80.60;;;;;;5096075;28;20071;-77
2022/07/06 12:19:11;;;;;;;3.95;0.77;;;21.80;80.60;;;;;;5061636;28;20126;-78
2022/07/06 12:21:49;;;;;;;3.72;0.73;;;21.90;80.70;;;;;;5095292;28;20043;-78
2022/07/06 12:24:19;;;;;;;1.30;0.65;;;22.00;79.10;;;;;;5078638;28;20038;-78
2022/07/06 12:26:44;;;;;;;3.03;1.13;;;21.90;79.80;;;;;;5095366;28;20046;-77
2022/07/06 12:29:15;;;;;;;3.08;0.95;;;21.80;79.00;;;;;;5078288;28;20040;-78
2022/07/06 12:31:49;;;;;;;2.30;0.82;;;21.90;80.90;;;;;;5079103;28;20044;-78
2022/07/06 12:34:24;;;;;;;6.43;1.25;;;22.30;80.70;;;;;;5078920;28;20047;-77
2022/07/06 12:36:55;;;;;;;1.08;0.52;;;22.60;81.10;;;;;;5078454;28;20048;-78
2022/07/06 12:39:28;;;;;;;2.20;0.85;;;22.90;80.80;;;;;;5098972;28;20101;-78
2022/07/06 12:42:04;;;;;;;2.83;0.70;;;22.80;80.30;;;;;;5100444;28;20044;-78
2022/07/06 12:44:31;;;;;;;2.42;1.20;;;22.90;80.40;;;;;;5066169;28;20101;-78
2022/07/06 12:47:07;;;;;;;2.28;0.75;;;23.00;80.70;;;;;;5098908;28;20036;-78
2022/07/06 12:49:34;;;;;;;1.83;0.80;;;23.30;80.80;;;;;;5065546;28;20459;-79
2022/07/06 12:52:10;;;;;;;3.00;0.88;;;23.60;80.90;;;;;;5081254;28;20078;-78